»·PEaware :: FDX1014 KOAK-KPHX

FDX1014 :: KOAK-KPHX

FLIGHT INFORMATION

Flight Status: Arrived
Operator:
Federal Express
More flights by this operator :: More flights under this callsign
Pilot: Jim M. (18055)
Aircraft: BOEING 777-200
(B772)
More flights by this aircraft type
Origin: KOAK Metro Oakland Intl
United States
Destination: KPHX Phoenix Sky Harbor Intl
United States
More flights between these airports :: More routes between these airports
Route: +CNDEL4 LOSHN BOILE BLH HYDRR1
File this flight plan on PilotEdge
Remarks:
Altitude:
(Current/Filed)
37,000ft
Speed:
(Current/Filed)
450kts
Departed: 14-Apr-19 09:26 AM
Arrived: 14-Apr-19 10:53 AM
Distance/Time
Traveled:
560nm/1:27
Distance/Time
To Go:
Arrived

Flight Plot

Page will automatically refresh every two minutes.

Flight plan parsing failed; only flown route is shown


Map Options




Map Legend


Flown Route
Filed Route
Departure Airport
Arrival Airport
Navaid (VOR, NDB)
Fix

Horizontal Profiles

Position Reports

Time Latitude Longitude Heading Altitude Ground
Speed
14-Apr-19 08:33 37.719344 -122.217335 305 19ft 0kts
14-Apr-19 08:34 37.719344 -122.217335 305 19ft 0kts
14-Apr-19 08:35 37.719344 -122.217335 305 19ft 0kts
14-Apr-19 08:36 37.719344 -122.217335 305 19ft 0kts
14-Apr-19 08:36 37.719344 -122.217335 305 19ft 0kts
14-Apr-19 08:38 37.719344 -122.217335 305 19ft 0kts
14-Apr-19 08:39 37.719344 -122.217335 305 19ft 0kts
14-Apr-19 08:40 37.719344 -122.217335 305 19ft 0kts
14-Apr-19 08:41 37.719344 -122.217335 305 19ft 0kts
14-Apr-19 08:41 37.719344 -122.217335 305 19ft 0kts
14-Apr-19 08:43 37.719344 -122.217335 305 19ft 0kts
14-Apr-19 08:43 37.719344 -122.217335 305 19ft 0kts
14-Apr-19 08:44 37.719344 -122.217335 305 19ft 0kts
14-Apr-19 08:46 37.719344 -122.217335 305 19ft 0kts
14-Apr-19 08:46 37.719344 -122.217335 305 19ft 0kts
14-Apr-19 08:47 37.719344 -122.217335 305 19ft 0kts
14-Apr-19 08:48 37.719344 -122.217335 305 19ft 0kts
14-Apr-19 08:49 37.719344 -122.217335 305 19ft 0kts
14-Apr-19 08:50 37.719344 -122.217335 305 19ft 0kts
14-Apr-19 08:51 37.719344 -122.217335 305 19ft 0kts
14-Apr-19 08:52 37.719344 -122.217335 305 19ft 0kts
14-Apr-19 08:53 37.719344 -122.217335 305 19ft 0kts
14-Apr-19 08:54 37.719344 -122.217335 305 19ft 0kts
14-Apr-19 08:55 37.719344 -122.217335 305 19ft 0kts
14-Apr-19 08:56 37.719344 -122.217335 305 19ft 0kts
14-Apr-19 08:57 37.719344 -122.217335 305 19ft 0kts
14-Apr-19 08:58 37.719344 -122.217335 305 19ft 0kts
14-Apr-19 08:59 37.719344 -122.217335 305 19ft 0kts
14-Apr-19 09:00 37.719344 -122.217335 305 19ft 0kts
14-Apr-19 09:01 37.719344 -122.217335 305 19ft 0kts
14-Apr-19 09:02 37.719344 -122.217335 305 19ft 0kts
14-Apr-19 09:03 37.719344 -122.217335 305 19ft 0kts
14-Apr-19 09:04 37.719344 -122.217335 305 19ft 0kts
14-Apr-19 09:05 37.719344 -122.217335 305 19ft 0kts
14-Apr-19 09:06 37.719344 -122.217335 305 19ft 0kts
14-Apr-19 09:07 37.719344 -122.217335 305 19ft 0kts
14-Apr-19 09:08 37.719344 -122.217335 305 19ft 0kts
14-Apr-19 09:09 37.719140 -122.216947 300 19ft 2kts
14-Apr-19 09:10 37.718890 -122.216205 277 19ft 2kts
14-Apr-19 09:11 37.719066 -122.215611 220 19ft 0kts
14-Apr-19 09:12 37.719066 -122.215611 220 19ft 0kts
14-Apr-19 09:13 37.719066 -122.215611 220 19ft 0kts
14-Apr-19 09:14 37.719066 -122.215611 220 19ft 0kts
14-Apr-19 09:15 37.717741 -122.217165 225 19ft 6kts
14-Apr-19 09:16 37.716981 -122.217730 173 19ft 7kts
14-Apr-19 09:17 37.715165 -122.219349 224 19ft 10kts
14-Apr-19 09:18 37.713856 -122.221812 295 19ft 8kts
14-Apr-19 09:19 37.713079 -122.224029 232 19ft 6kts
14-Apr-19 09:20 37.711376 -122.225414 136 19ft 10kts
14-Apr-19 09:21 37.709701 -122.222873 130 19ft 8kts
14-Apr-19 09:22 37.707215 -122.219140 128 19ft 14kts
14-Apr-19 09:23 37.705006 -122.215672 129 19ft 11kts
14-Apr-19 09:24 37.702923 -122.213691 175 19ft 8kts
14-Apr-19 09:25 37.702673 -122.216039 313 20ft 41kts
14-Apr-19 09:26 37.730159 -122.258438 307 2066ft 205kts
14-Apr-19 09:27 37.772228 -122.320298 308 1903ft 243kts
14-Apr-19 09:28 37.778664 -122.392965 220 2193ft 250kts
14-Apr-19 09:29 37.707865 -122.408241 190 6208ft 274kts
14-Apr-19 09:30 37.631497 -122.428401 197 10241ft 289kts
14-Apr-19 09:31 37.544789 -122.456484 193 13167ft 360kts
14-Apr-19 09:32 37.451056 -122.406507 138 16272ft 426kts
14-Apr-19 09:33 37.370001 -122.290133 131 19341ft 453kts
14-Apr-19 09:34 37.288968 -122.164373 131 22658ft 475kts
14-Apr-19 09:35 37.203846 -122.032256 130 25796ft 493kts
14-Apr-19 09:36 37.116685 -121.898243 130 29032ft 504kts
14-Apr-19 09:37 37.026734 -121.760705 129 31729ft 512kts
14-Apr-19 09:38 36.937054 -121.624160 129 34554ft 504kts
14-Apr-19 09:39 36.847882 -121.488926 130 36715ft 502kts
14-Apr-19 09:40 36.757796 -121.352890 130 37078ft 515kts
14-Apr-19 09:41 36.666980 -121.215856 130 37075ft 512kts
14-Apr-19 09:42 36.575900 -121.079546 131 37074ft 513kts
14-Apr-19 09:43 36.484331 -120.943173 131 37060ft 513kts
14-Apr-19 09:44 36.392970 -120.806701 131 37056ft 513kts
14-Apr-19 09:45 36.301494 -120.670665 131 37047ft 514kts
14-Apr-19 09:46 36.210146 -120.534311 131 37040ft 514kts
14-Apr-19 09:47 36.118723 -120.398781 132 37030ft 514kts
14-Apr-19 09:48 36.027072 -120.263196 132 37030ft 513kts
14-Apr-19 09:49 35.935014 -120.128139 132 37029ft 513kts
14-Apr-19 09:50 35.842862 -119.993614 132 37029ft 513kts
14-Apr-19 09:51 35.749388 -119.861082 133 37028ft 513kts
14-Apr-19 09:52 35.655525 -119.728631 133 37024ft 513kts
14-Apr-19 09:53 35.561959 -119.595964 133 37023ft 512kts
14-Apr-19 09:54 35.468685 -119.464468 133 37022ft 511kts
14-Apr-19 09:55 35.374971 -119.333116 133 37030ft 510kts
14-Apr-19 09:56 35.281706 -119.202913 134 37028ft 509kts
14-Apr-19 09:57 35.187881 -119.072430 134 37034ft 510kts
14-Apr-19 09:58 35.094076 -118.942466 134 37068ft 510kts
14-Apr-19 09:59 35.000341 -118.813087 134 37092ft 508kts
14-Apr-19 10:00 34.906644 -118.684244 134 37102ft 508kts
14-Apr-19 10:01 34.812635 -118.555452 134 37101ft 507kts
14-Apr-19 10:02 34.718853 -118.427443 134 37072ft 507kts
14-Apr-19 10:03 34.625017 -118.299660 134 37043ft 506kts
14-Apr-19 10:04 34.531482 -118.172775 134 37042ft 504kts
14-Apr-19 10:05 34.438418 -118.045378 129 37044ft 506kts
14-Apr-19 10:06 34.385150 -117.887543 105 37054ft 514kts
14-Apr-19 10:07 34.348624 -117.720279 107 37059ft 513kts
14-Apr-19 10:08 34.308959 -117.554525 107 37056ft 515kts
14-Apr-19 10:09 34.268906 -117.388109 108 37051ft 516kts
14-Apr-19 10:10 34.228136 -117.221128 108 37064ft 517kts
14-Apr-19 10:11 34.187232 -117.054813 108 37086ft 518kts
14-Apr-19 10:12 34.145831 -116.887579 108 37135ft 520kts
14-Apr-19 10:13 34.104224 -116.720588 108 37123ft 520kts
14-Apr-19 10:14 34.062288 -116.553354 108 37077ft 521kts
14-Apr-19 10:15 34.020058 -116.386014 108 37039ft 521kts
14-Apr-19 10:16 33.977732 -116.219359 108 37033ft 520kts
14-Apr-19 10:17 33.935043 -116.052320 109 37018ft 521kts
14-Apr-19 10:18 33.892177 -115.885640 109 37007ft 521kts
14-Apr-19 10:19 33.849102 -115.719183 109 37003ft 521kts
14-Apr-19 10:20 33.805978 -115.553551 109 37007ft 514kts
14-Apr-19 10:21 33.763086 -115.389816 109 37008ft 514kts
14-Apr-19 10:22 33.719947 -115.226120 109 36761ft 511kts
14-Apr-19 10:23 33.677755 -115.065819 110 34617ft 498kts
14-Apr-19 10:24 33.635910 -114.909396 110 32782ft 485kts
14-Apr-19 10:25 33.595040 -114.757236 109 31018ft 472kts
14-Apr-19 10:26 33.564867 -114.603788 104 28312ft 480kts
14-Apr-19 10:27 33.535044 -114.449370 104 26060ft 468kts
14-Apr-19 10:28 33.505738 -114.297564 105 24803ft 462kts
14-Apr-19 10:29 33.476235 -114.149540 105 23753ft 445kts
14-Apr-19 10:30 33.448425 -114.010303 105 23087ft 422kts
14-Apr-19 10:31 33.420887 -113.873600 105 23028ft 423kts
14-Apr-19 10:32 33.393656 -113.736769 105 22285ft 416kts
14-Apr-19 10:33 33.366524 -113.603732 105 20516ft 407kts
14-Apr-19 10:34 33.339979 -113.474156 105 19177ft 398kts
14-Apr-19 10:35 33.317453 -113.345731 102 17831ft 390kts
14-Apr-19 10:36 33.295647 -113.219769 102 16534ft 382kts
14-Apr-19 10:37 33.278282 -113.096903 100 15289ft 365kts
14-Apr-19 10:38 33.276549 -112.977869 88 13954ft 354kts
14-Apr-19 10:39 33.279496 -112.864034 89 12627ft 328kts
14-Apr-19 10:40 33.302529 -112.760421 64 11349ft 323kts
14-Apr-19 10:41 33.338960 -112.666257 65 10129ft 295kts
14-Apr-19 10:42 33.371395 -112.581231 66 9470ft 265kts
14-Apr-19 10:43 33.400187 -112.505473 67 8020ft 248kts
14-Apr-19 10:44 33.425746 -112.430497 77 7039ft 238kts
14-Apr-19 10:45 33.428986 -112.352673 93 5750ft 231kts
14-Apr-19 10:46 33.428993 -112.279682 92 5210ft 197kts
14-Apr-19 10:47 33.428970 -112.216382 92 4196ft 179kts
14-Apr-19 10:48 33.428933 -112.159842 92 3300ft 158kts
14-Apr-19 10:49 33.429092 -112.109407 91 2480ft 148kts
14-Apr-19 10:50 33.429103 -112.059587 90 1690ft 148kts
14-Apr-19 10:51 33.428824 -112.012620 87 1149ft 76kts
14-Apr-19 10:52 33.427733 -112.007317 268 1149ft 18kts
14-Apr-19 10:53 33.427717 -112.010540 269 1149ft 13kts
14-Apr-19 10:54 33.427707 -112.014541 271 1149ft 10kts
14-Apr-19 10:55 33.427264 -112.017323 184 1149ft 8kts
14-Apr-19 10:56 33.426199 -112.018450 267 1149ft 0kts
14-Apr-19 10:57 33.426199 -112.018450 267 1149ft 0kts
14-Apr-19 10:58 33.426199 -112.018450 267 1149ft 0kts

Navigation Log

Ident Type
Flight plan parsing failed, navigation log unavailable